Phillips, Nebraska
Current Conditions -  °F | °C
As of 11:53 PM on Thursday 18 Dec 2014 (Local Time) from KGRI Reporting Station
Overcast Overcast  
Wind Chill: 23°   Ceiling: 1200
Heat Index: 29°   Visibility: 10mi
Dew Point: 24°   Wind: 6mph
Humidity: 82%   Direction: 220°SW
Pressure: 30.2"   Gusts: NA
Location:  40.9°N, 98.21°W
Report Text: KGRI 190553Z AUTO 22005KT 10SM OVC012 M02/M04 A3020 RMK AO2 SLP253 T10171044 11011 21017 410111050 51006
Loading
Personal Weather Stations






























Interactive Weather Map New forecast layout! Learn more

10-Day Weather Forecast

Advertisements
Track Severe Weather on mobile